Time;durP1;ratioP1;P1;durP2;ratioP2;P2;SDS_P1;SDS_P2;PMS_P1;PMS_P2;Temp;Humidity;BMP_temperature;BMP_pressure;BME280_temperature;BME280_humidity;BME280_pressure;Samples;Min_cycle;Max_cycle;Signal;HPM_P1;HPM_P2
2022/06/11 00:00:55;;;;;;;3.47;3.27;;;;;;;;;;4936360;29;20414;-67
2022/06/11 00:03:22;;;;;;;3.53;3.33;;;;;;;;;;4936311;29;20906;-66
2022/06/11 00:05:49;;;;;;;9.63;4.03;;;;;;;;;;4935348;29;20417;-66
2022/06/11 00:08:15;;;;;;;4.50;4.10;;;;;;;;;;4936249;29;20492;-66
2022/06/11 00:10:42;;;;;;;5.40;4.80;;;;;;;;;;4936246;29;20466;-65
2022/06/11 00:13:09;;;;;;;4.90;4.60;;;;;;;;;;4936248;29;20761;-66
2022/06/11 00:15:35;;;;;;;5.30;4.80;;;;;;;;;;4936277;29;20420;-66
2022/06/11 00:18:01;;;;;;;6.30;4.80;;;;;;;;;;4936067;29;20464;-67
2022/06/11 00:20:28;;;;;;;4.37;4.27;;;;;;;;;;4938847;29;20414;-68
2022/06/11 00:22:54;;;;;;;5.40;4.87;;;;;;;;;;4938867;29;20474;-67
2022/06/11 00:25:21;;;;;;;4.90;4.60;;;;;;;;;;4940054;29;20426;-66
2022/06/11 00:27:47;;;;;;;5.07;4.77;;;;;;;;;;4938847;29;20442;-66
2022/06/11 00:30:14;;;;;;;4.50;4.30;;;;;;;;;;4940043;29;20415;-67
2022/06/11 00:32:40;;;;;;;4.87;4.50;;;;;;;;;;4939801;29;20993;-66
2022/06/11 00:35:07;;;;;;;5.10;4.83;;;;;;;;;;4939909;29;20420;-65
2022/06/11 00:37:33;;;;;;;4.30;4.07;;;;;;;;;;4939733;29;20554;-66
2022/06/11 00:39:59;;;;;;;4.20;3.93;;;;;;;;;;4939858;29;20434;-67
2022/06/11 00:42:27;;;;;;;5.20;4.30;;;;;;;;;;4939835;29;20415;-66
2022/06/11 00:45:12;;;;;;;4.37;3.97;;;;;;;;;;4939783;29;20451;-67
2022/06/11 00:47:38;;;;;;;5.00;4.53;;;;;;;;;;4939764;29;20403;-66
2022/06/11 00:50:31;;;;;;;4.10;3.80;;;;;;;;;;4939692;29;20420;-67
2022/06/11 00:52:58;;;;;;;4.77;4.57;;;;;;;;;;4917571;29;20431;-68
2022/06/11 00:55:24;;;;;;;10.43;4.10;;;;;;;;;;4940053;29;20414;-66
2022/06/11 00:57:49;;;;;;;4.40;4.20;;;;;;;;;;4939570;29;20562;-66
2022/06/11 01:00:18;;;;;;;5.40;4.60;;;;;;;;;;4939463;29;20426;-66
2022/06/11 01:02:44;;;;;;;5.30;4.17;;;;;;;;;;4938226;29;20914;-66
2022/06/11 01:05:13;;;;;;;5.93;4.47;;;;;;;;;;4938173;29;20431;-66
2022/06/11 01:07:39;;;;;;;6.43;4.60;;;;;;;;;;4939314;29;20854;-67
2022/06/11 01:10:17;;;;;;;6.63;4.60;;;;;;;;;;4939486;29;20469;-66
2022/06/11 01:12:51;;;;;;;8.73;4.60;;;;;;;;;;4939233;29;20949;-66
2022/06/11 01:15:17;;;;;;;4.67;4.07;;;;;;;;;;4939260;29;20411;-67
2022/06/11 01:17:52;;;;;;;4.50;4.20;;;;;;;;;;4939134;29;20963;-66
2022/06/11 01:20:18;;;;;;;8.03;4.60;;;;;;;;;;4937820;29;20419;-66
2022/06/11 01:23:05;;;;;;;5.17;4.70;;;;;;;;;;4939056;29;20439;-66
2022/06/11 01:25:49;;;;;;;5.73;4.33;;;;;;;;;;4939016;29;20402;-66
2022/06/11 01:28:15;;;;;;;4.23;3.93;;;;;;;;;;4939141;29;20415;-66
2022/06/11 01:30:50;;;;;;;3.70;3.60;;;;;;;;;;4938886;29;20434;-66
2022/06/11 01:33:16;;;;;;;4.60;4.10;;;;;;;;;;4938932;29;20799;-65
2022/06/11 01:35:58;;;;;;;4.00;3.70;;;;;;;;;;4938853;29;20426;-67
2022/06/11 01:38:33;;;;;;;3.70;3.37;;;;;;;;;;4938702;29;20474;-67
2022/06/11 01:40:59;;;;;;;3.80;3.20;;;;;;;;;;4938856;29;20419;-66
2022/06/11 01:43:52;;;;;;;4.43;3.70;;;;;;;;;;4938731;29;20410;-67
2022/06/11 01:46:20;;;;;;;3.40;3.23;;;;;;;;;;4936050;29;20439;-67
2022/06/11 01:49:03;;;;;;;3.40;2.83;;;;;;;;;;4938608;29;20451;-66
2022/06/11 01:51:43;;;;;;;3.87;2.90;;;;;;;;;;4937403;29;20427;-67
2022/06/11 01:54:12;;;;;;;6.20;3.60;;;;;;;;;;4938464;29;20903;-68
2022/06/11 01:56:38;;;;;;;3.73;3.53;;;;;;;;;;4938729;29;20415;-67
2022/06/11 01:59:16;;;;;;;3.50;3.20;;;;;;;;;;4937088;29;20502;-66
2022/06/11 02:02:00;;;;;;;3.83;3.53;;;;;;;;;;4938416;29;20415;-67
2022/06/11 02:04:32;;;;;;;3.20;3.00;;;;;;;;;;4937114;29;20447;-67
2022/06/11 02:07:19;;;;;;;3.43;3.13;;;;;;;;;;4938371;29;20917;-67
2022/06/11 02:09:56;;;;;;;3.20;3.10;;;;;;;;;;4938167;29;20945;-66
2022/06/11 02:12:37;;;;;;;9.80;3.70;;;;;;;;;;4938176;29;20419;-67
2022/06/11 02:15:24;;;;;;;8.13;3.73;;;;;;;;;;4938148;29;20414;-67
2022/06/11 02:17:52;;;;;;;3.27;3.17;;;;;;;;;;4937962;29;20521;-67
2022/06/11 02:20:21;;;;;;;3.37;3.17;;;;;;;;;;4936799;29;20850;-66
2022/06/11 02:22:50;;;;;;;3.40;3.20;;;;;;;;;;4938023;29;20421;-66
2022/06/11 02:25:18;;;;;;;8.70;3.93;;;;;;;;;;4937953;29;20901;-67
2022/06/11 02:27:45;;;;;;;4.23;4.03;;;;;;;;;;4937884;29;20469;-67
2022/06/11 02:30:12;;;;;;;3.90;3.60;;;;;;;;;;4937929;29;20414;-65
2022/06/11 02:32:39;;;;;;;4.00;3.70;;;;;;;;;;4937638;29;20504;-69
2022/06/11 02:35:07;;;;;;;3.93;3.70;;;;;;;;;;4937904;29;20407;-67
2022/06/11 02:37:35;;;;;;;4.40;4.10;;;;;;;;;;4937645;29;20569;-66
2022/06/11 02:40:04;;;;;;;4.43;3.90;;;;;;;;;;4937594;29;20434;-66
2022/06/11 02:42:31;;;;;;;4.63;3.77;;;;;;;;;;4936984;29;20739;-67
2022/06/11 02:44:57;;;;;;;5.60;4.20;;;;;;;;;;4937629;29;20414;-67
2022/06/11 02:47:23;;;;;;;4.03;3.83;;;;;;;;;;4937613;29;20406;-66
2022/06/11 02:49:49;;;;;;;4.57;4.40;;;;;;;;;;4937460;29;20428;-67
2022/06/11 02:52:17;;;;;;;5.93;4.60;;;;;;;;;;4937590;29;20442;-67
2022/06/11 02:54:44;;;;;;;4.63;4.30;;;;;;;;;;4937345;29;20521;-66
2022/06/11 02:57:13;;;;;;;4.57;4.27;;;;;;;;;;4936083;29;20414;-67
2022/06/11 02:59:40;;;;;;;10.80;4.90;;;;;;;;;;4936079;29;20806;-67
2022/06/11 03:02:06;;;;;;;4.80;4.50;;;;;;;;;;4937303;29;20407;-67
2022/06/11 03:04:32;;;;;;;4.43;4.10;;;;;;;;;;4937373;29;20423;-67
2022/06/11 03:06:59;;;;;;;3.97;3.77;;;;;;;;;;4936199;29;20488;-66
2022/06/11 03:09:27;;;;;;;7.00;4.30;;;;;;;;;;4937149;29;20423;-67
2022/06/11 03:11:53;;;;;;;4.40;4.10;;;;;;;;;;4937066;29;20414;-66
2022/06/11 03:14:19;;;;;;;4.73;4.40;;;;;;;;;;4937294;29;20417;-67
2022/06/11 03:16:45;;;;;;;4.87;4.57;;;;;;;;;;4937307;29;20417;-65
2022/06/11 03:19:12;;;;;;;4.53;4.20;;;;;;;;;;4936951;29;20476;-65
2022/06/11 03:21:38;;;;;;;4.90;4.50;;;;;;;;;;4935784;29;20420;-65
2022/06/11 03:24:05;;;;;;;4.40;4.10;;;;;;;;;;4936928;29;20424;-65
2022/06/11 03:26:31;;;;;;;4.17;3.97;;;;;;;;;;4935733;29;20519;-65
2022/06/11 03:28:57;;;;;;;4.30;3.93;;;;;;;;;;4936868;29;20422;-65
2022/06/11 03:31:23;;;;;;;4.03;3.70;;;;;;;;;;4937093;29;20491;-64
2022/06/11 03:33:49;;;;;;;3.50;3.40;;;;;;;;;;4936751;29;20801;-65
2022/06/11 03:36:16;;;;;;;3.87;3.73;;;;;;;;;;4936831;29;20503;-65
2022/06/11 03:38:42;;;;;;;3.70;3.50;;;;;;;;;;4936563;29;20524;-65
2022/06/11 03:41:09;;;;;;;4.37;3.40;;;;;;;;;;4936705;29;20412;-65
2022/06/11 03:43:36;;;;;;;4.30;4.00;;;;;;;;;;4936599;29;20416;-66
2022/06/11 03:46:02;;;;;;;4.00;3.70;;;;;;;;;;4936636;29;20944;-65
2022/06/11 03:48:29;;;;;;;3.60;3.40;;;;;;;;;;4936540;29;20423;-64
2022/06/11 03:50:55;;;;;;;4.70;3.87;;;;;;;;;;4936615;29;20539;-65
2022/06/11 03:53:21;;;;;;;4.70;4.20;;;;;;;;;;4936366;29;20420;-64
2022/06/11 03:55:48;;;;;;;3.93;3.60;;;;;;;;;;4936435;29;20443;-64
2022/06/11 03:58:14;;;;;;;4.30;3.37;;;;;;;;;;4936378;29;20472;-65
2022/06/11 04:03:25;;;;;;;3.50;3.30;;;;;;;;;;4936625;29;20451;-65
2022/06/11 04:05:52;;;;;;;3.90;3.70;;;;;;;;;;4936262;29;20428;-65
2022/06/11 04:08:18;;;;;;;6.73;4.00;;;;;;;;;;4936301;29;20424;-65
2022/06/11 04:10:45;;;;;;;6.13;4.07;;;;;;;;;;4936300;29;20438;-65
2022/06/11 04:13:12;;;;;;;7.87;4.60;;;;;;;;;;4936234;29;20416;-65
2022/06/11 04:15:39;;;;;;;5.63;3.70;;;;;;;;;;4936280;29;20447;-65
2022/06/11 04:18:06;;;;;;;4.30;4.07;;;;;;;;;;4936121;29;20465;-65
2022/06/11 04:20:32;;;;;;;3.73;3.53;;;;;;;;;;4936290;29;20420;-65
2022/06/11 04:22:59;;;;;;;4.73;4.33;;;;;;;;;;4936118;29;20397;-65
2022/06/11 04:25:25;;;;;;;6.93;3.67;;;;;;;;;;4936472;29;20793;-65
2022/06/11 04:27:53;;;;;;;10.27;4.50;;;;;;;;;;4936189;29;20417;-65
2022/06/11 04:30:20;;;;;;;4.17;3.93;;;;;;;;;;4936137;29;20407;-65
2022/06/11 04:32:46;;;;;;;4.13;3.73;;;;;;;;;;4935997;29;20476;-65
2022/06/11 04:35:12;;;;;;;4.33;3.87;;;;;;;;;;4936100;29;20427;-65
2022/06/11 04:37:38;;;;;;;9.17;5.27;;;;;;;;;;4936010;29;20982;-65
2022/06/11 04:40:07;;;;;;;4.37;4.07;;;;;;;;;;4935975;29;20425;-65
2022/06/11 04:42:34;;;;;;;3.90;3.80;;;;;;;;;;4936064;29;20406;-65
2022/06/11 04:45:00;;;;;;;3.53;3.43;;;;;;;;;;4936017;29;20425;-65
2022/06/11 04:47:27;;;;;;;4.20;4.00;;;;;;;;;;4936070;29;20409;-66
2022/06/11 04:49:54;;;;;;;4.50;4.10;;;;;;;;;;4934716;29;20445;-65
2022/06/11 04:52:20;;;;;;;4.37;3.50;;;;;;;;;;4935937;29;20436;-65
2022/06/11 04:54:46;;;;;;;4.30;3.80;;;;;;;;;;4935933;29;20891;-65
2022/06/11 04:57:12;;;;;;;3.60;3.47;;;;;;;;;;4935813;29;20416;-65
2022/06/11 04:59:38;;;;;;;5.20;5.00;;;;;;;;;;4934637;29;20444;-65
2022/06/11 05:02:04;;;;;;;3.53;3.43;;;;;;;;;;4935934;29;20876;-65
2022/06/11 05:04:31;;;;;;;3.63;3.20;;;;;;;;;;4935799;29;20422;-68
2022/06/11 05:06:57;;;;;;;3.37;3.17;;;;;;;;;;4938907;29;20413;-65
2022/06/11 05:09:23;;;;;;;6.03;3.40;;;;;;;;;;4939308;29;20428;-65
2022/06/11 05:11:50;;;;;;;4.20;3.00;;;;;;;;;;4939324;29;20410;-65
2022/06/11 05:14:17;;;;;;;6.90;3.03;;;;;;;;;;4939538;29;20426;-65
2022/06/11 05:16:44;;;;;;;7.63;3.47;;;;;;;;;;4939175;29;20505;-65
2022/06/11 05:19:12;;;;;;;3.27;2.97;;;;;;;;;;4939047;29;20956;-66
2022/06/11 05:21:38;;;;;;;4.07;2.80;;;;;;;;;;4939184;29;20411;-66
2022/06/11 05:24:05;;;;;;;3.47;3.30;;;;;;;;;;4939062;29;20427;-66
2022/06/11 05:26:33;;;;;;;3.63;3.37;;;;;;;;;;4937770;29;20781;-66
2022/06/11 05:29:00;;;;;;;5.33;3.63;;;;;;;;;;4939040;29;20502;-67
2022/06/11 05:31:26;;;;;;;8.63;3.40;;;;;;;;;;4938780;29;20973;-67
2022/06/11 05:33:52;;;;;;;4.07;3.53;;;;;;;;;;4938913;29;20467;-66
2022/06/11 05:36:20;;;;;;;4.07;3.50;;;;;;;;;;4938933;29;20412;-68
2022/06/11 05:38:46;;;;;;;4.47;3.40;;;;;;;;;;4938764;29;20499;-66
2022/06/11 05:41:12;;;;;;;4.43;3.80;;;;;;;;;;4938822;29;20498;-66
2022/06/11 05:43:39;;;;;;;3.60;3.40;;;;;;;;;;4938672;29;20424;-67
2022/06/11 05:46:11;;;;;;;16.30;11.30;;;;;;;;;;4938683;29;20410;-66
2022/06/11 05:48:39;;;;;;;3.60;3.40;;;;;;;;;;4938587;29;20783;-68
2022/06/11 05:51:06;;;;;;;3.53;3.33;;;;;;;;;;4938539;29;20407;-68
2022/06/11 05:53:34;;;;;;;14.37;3.27;;;;;;;;;;4938480;29;20486;-67
2022/06/11 05:56:01;;;;;;;4.17;3.83;;;;;;;;;;4937246;29;20688;-66
2022/06/11 05:58:29;;;;;;;4.30;3.80;;;;;;;;;;4937188;29;20486;-66
2022/06/11 06:00:56;;;;;;;3.77;3.60;;;;;;;;;;4938675;29;20412;-68
2022/06/11 06:03:22;;;;;;;4.50;3.67;;;;;;;;;;4938380;29;20421;-66
2022/06/11 06:05:48;;;;;;;3.60;3.40;;;;;;;;;;4938405;29;20408;-68
2022/06/11 06:08:14;;;;;;;6.00;3.43;;;;;;;;;;4937059;29;20479;-67
2022/06/11 06:10:40;;;;;;;4.30;2.80;;;;;;;;;;4938309;29;20483;-67
2022/06/11 06:13:45;;;;;;;10.37;3.00;;;;;;;;;;4938141;29;20806;-67
2022/06/11 06:15:53;;;;;;;2.40;2.30;;;;;;;;;;4938076;29;20490;-68
2022/06/11 06:18:20;;;;;;;2.90;2.60;;;;;;;;;;4936984;29;20496;-68
2022/06/11 06:20:46;;;;;;;2.77;2.30;;;;;;;;;;4938141;29;20518;-67
2022/06/11 06:23:12;;;;;;;6.40;5.87;;;;;;;;;;4937944;29;20404;-68
2022/06/11 06:25:38;;;;;;;3.17;2.93;;;;;;;;;;4938053;29;20421;-68
2022/06/11 06:28:04;;;;;;;2.83;2.60;;;;;;;;;;4936724;29;20475;-67
2022/06/11 06:30:30;;;;;;;5.43;2.50;;;;;;;;;;4937916;29;20424;-66
2022/06/11 06:32:56;;;;;;;2.87;2.67;;;;;;;;;;4937657;29;20813;-68
2022/06/11 06:35:22;;;;;;;2.80;2.70;;;;;;;;;;4937818;29;20564;-68
2022/06/11 06:37:48;;;;;;;2.37;2.17;;;;;;;;;;4937687;29;20479;-68
2022/06/11 06:40:15;;;;;;;18.73;9.70;;;;;;;;;;4937708;29;20918;-67
2022/06/11 06:42:42;;;;;;;4.73;4.43;;;;;;;;;;4937883;29;20535;-68
2022/06/11 06:45:08;;;;;;;2.70;2.50;;;;;;;;;;4937673;29;20494;-66
2022/06/11 06:47:34;;;;;;;3.03;2.83;;;;;;;;;;4937585;29;20471;-68
2022/06/11 06:50:00;;;;;;;7.13;3.20;;;;;;;;;;4936655;29;20900;-68
2022/06/11 06:52:26;;;;;;;2.93;2.70;;;;;;;;;;4937573;29;20418;-68
2022/06/11 06:54:52;;;;;;;4.00;2.70;;;;;;;;;;4937357;29;20479;-68
2022/06/11 06:57:18;;;;;;;2.83;2.17;;;;;;;;;;4937354;29;20419;-67
2022/06/11 06:59:44;;;;;;;2.73;2.53;;;;;;;;;;4937385;29;20434;-66
2022/06/11 07:02:10;;;;;;;3.43;2.40;;;;;;;;;;4937333;29;20830;-67
2022/06/11 07:04:37;;;;;;;2.00;1.93;;;;;;;;;;4937384;29;20446;-66
2022/06/11 07:07:03;;;;;;;2.57;2.37;;;;;;;;;;4937245;29;20468;-67
2022/06/11 07:09:30;;;;;;;7.83;2.83;;;;;;;;;;4937144;29;20906;-67
2022/06/11 07:11:56;;;;;;;2.97;2.77;;;;;;;;;;4937099;29;20427;-67
2022/06/11 07:14:22;;;;;;;1.77;1.77;;;;;;;;;;4935879;29;20431;-67
2022/06/11 07:16:51;;;;;;;3.47;2.40;;;;;;;;;;4937063;29;20882;-66
2022/06/11 07:19:20;;;;;;;6.70;2.40;;;;;;;;;;4936911;29;20548;-67
2022/06/11 07:21:49;;;;;;;2.20;2.00;;;;;;;;;;4936993;29;20899;-68
2022/06/11 07:24:16;;;;;;;2.47;2.33;;;;;;;;;;4937052;29;20861;-67
2022/06/11 07:26:44;;;;;;;4.43;2.30;;;;;;;;;;4936907;29;20496;-68
2022/06/11 07:29:30;;;;;;;2.10;2.00;;;;;;;;;;4936552;29;20925;-68
2022/06/11 07:32:01;;;;;;;3.27;2.17;;;;;;;;;;4936498;29;20536;-67
2022/06/11 07:34:26;;;;;;;2.13;2.00;;;;;;;;;;4935591;29;20500;-67
2022/06/11 07:36:52;;;;;;;2.00;1.90;;;;;;;;;;4936649;29;20900;-66
2022/06/11 07:39:18;;;;;;;4.60;2.50;;;;;;;;;;4936580;29;20536;-66
2022/06/11 07:41:44;;;;;;;5.83;2.00;;;;;;;;;;4936616;29;20406;-67
2022/06/11 07:44:10;;;;;;;2.30;1.80;;;;;;;;;;4936605;29;20460;-66
2022/06/11 07:46:36;;;;;;;3.57;2.47;;;;;;;;;;4935269;29;20512;-67
2022/06/11 07:49:02;;;;;;;2.30;2.20;;;;;;;;;;4936525;29;20477;-66
2022/06/11 07:51:28;;;;;;;2.30;2.20;;;;;;;;;;4936557;29;20417;-66
2022/06/11 07:53:54;;;;;;;2.30;2.20;;;;;;;;;;4936471;29;20426;-67
2022/06/11 07:56:20;;;;;;;2.67;2.47;;;;;;;;;;4935072;29;20472;-66
2022/06/11 07:58:49;;;;;;;2.67;2.47;;;;;;;;;;4936045;29;20477;-67
2022/06/11 08:01:15;;;;;;;2.63;2.50;;;;;;;;;;4936473;29;20842;-67
2022/06/11 08:03:41;;;;;;;2.90;2.70;;;;;;;;;;4936251;29;20563;-66
2022/06/11 08:06:08;;;;;;;3.90;2.60;;;;;;;;;;4936265;29;20415;-65
2022/06/11 08:08:34;;;;;;;2.90;2.57;;;;;;;;;;4936280;29;20483;-66
2022/06/11 08:11:01;;;;;;;3.00;2.90;;;;;;;;;;4936285;29;20875;-66
2022/06/11 08:13:27;;;;;;;17.33;2.90;;;;;;;;;;4934913;29;20434;-66
2022/06/11 08:15:54;;;;;;;14.37;3.10;;;;;;;;;;4936124;29;20501;-65
2022/06/11 08:18:20;;;;;;;4.70;2.97;;;;;;;;;;4934846;29;20478;-65
2022/06/11 08:20:47;;;;;;;2.97;2.73;;;;;;;;;;4936153;29;20412;-66
2022/06/11 08:23:14;;;;;;;5.03;3.20;;;;;;;;;;4934832;29;20424;-66
2022/06/11 08:25:40;;;;;;;3.63;3.33;;;;;;;;;;4934962;29;20424;-66
2022/06/11 08:28:06;;;;;;;3.30;3.10;;;;;;;;;;4936114;29;20422;-66
2022/06/11 08:30:33;;;;;;;3.23;2.90;;;;;;;;;;4936040;29;20415;-67
2022/06/11 08:32:59;;;;;;;6.77;3.20;;;;;;;;;;4935964;29;21002;-68
2022/06/11 08:35:26;;;;;;;5.80;2.80;;;;;;;;;;4935999;29;20926;-68
2022/06/11 08:37:52;;;;;;;2.83;2.70;;;;;;;;;;4936030;29;20465;-67
2022/06/11 08:40:26;;;;;;;3.80;3.60;;;;;;;;;;4936954;29;20815;-68
2022/06/11 08:43:11;;;;;;;3.60;3.00;;;;;;;;;;4939778;29;20921;-68
2022/06/11 08:45:39;;;;;;;5.27;4.00;;;;;;;;;;4939798;29;20768;-68
2022/06/11 08:48:16;;;;;;;3.97;3.43;;;;;;;;;;4939974;29;20413;-68
2022/06/11 08:50:48;;;;;;;3.00;2.80;;;;;;;;;;4939656;29;20883;-68
2022/06/11 08:53:14;;;;;;;3.90;3.50;;;;;;;;;;4939590;29;20410;-69
2022/06/11 08:55:40;;;;;;;3.83;3.50;;;;;;;;;;4939653;29;20757;-65
2022/06/11 08:58:18;;;;;;;4.57;3.10;;;;;;;;;;4939593;29;20550;-66
2022/06/11 09:01:23;;;;;;;6.73;2.63;;;;;;;;;;4939562;29;20404;-68
2022/06/11 09:03:58;;;;;;;2.97;2.87;;;;;;;;;;4880788;29;21121;-68
2022/06/11 09:06:36;;;;;;;2.97;2.73;;;;;;;;;;4902352;29;20413;-66
2022/06/11 09:09:04;;;;;;;5.63;2.00;;;;;;;;;;4939311;29;20424;-66
2022/06/11 09:11:30;;;;;;;3.60;3.07;;;;;;;;;;4939332;29;20404;-66
2022/06/11 09:14:10;;;;;;;4.73;3.30;;;;;;;;;;4939230;29;20426;-66
2022/06/11 09:16:49;;;;;;;4.00;3.30;;;;;;;;;;4938060;29;20412;-65
2022/06/11 09:19:24;;;;;;;4.00;3.70;;;;;;;;;;4939039;29;20634;-66
2022/06/11 09:21:50;;;;;;;8.30;4.27;;;;;;;;;;4939168;29;20505;-67
2022/06/11 09:24:35;;;;;;;8.27;5.00;;;;;;;;;;4938730;29;20515;-67
2022/06/11 09:27:05;;;;;;;11.97;2.30;;;;;;;;;;4938961;29;20491;-67
2022/06/11 09:29:43;;;;;;;2.03;1.80;;;;;;;;;;4938957;29;20417;-65
2022/06/11 09:32:14;;;;;;;3.20;1.90;;;;;;;;;;4938788;29;20472;-67
2022/06/11 09:34:42;;;;;;;2.53;2.33;;;;;;;;;;4938873;29;20417;-67
2022/06/11 09:37:08;;;;;;;2.70;2.47;;;;;;;;;;4937604;29;20441;-68
2022/06/11 09:39:37;;;;;;;2.47;2.33;;;;;;;;;;4938680;29;20852;-67
2022/06/11 09:42:21;;;;;;;1.67;1.57;;;;;;;;;;4938752;29;20207;-66
2022/06/11 09:44:53;;;;;;;1.97;1.87;;;;;;;;;;4937525;29;20523;-67
2022/06/11 09:47:22;;;;;;;9.30;2.00;;;;;;;;;;4938683;29;20405;-67
2022/06/11 09:50:21;;;;;;;1.87;1.83;;;;;;;;;;4938589;29;20416;-66
2022/06/11 09:52:50;;;;;;;4.30;2.00;;;;;;;;;;4906736;29;20435;-66
2022/06/11 09:55:21;;;;;;;2.30;2.20;;;;;;;;;;4938490;29;20428;-67
2022/06/11 09:57:54;;;;;;;3.53;1.70;;;;;;;;;;4938465;29;20464;-67
2022/06/11 10:00:24;;;;;;;2.10;2.00;;;;;;;;;;4938452;29;20927;-68
2022/06/11 10:05:47;;;;;;;1.83;1.73;;;;;;;;;;4938178;29;20435;-67
2022/06/11 10:08:21;;;;;;;1.70;1.60;;;;;;;;;;4938252;29;20452;-68
2022/06/11 10:10:48;;;;;;;3.17;1.67;;;;;;;;;;4938242;29;20405;-67
2022/06/11 10:13:29;;;;;;;1.80;1.70;;;;;;;;;;4938228;29;20419;-68
2022/06/11 10:15:55;;;;;;;2.40;1.63;;;;;;;;;;4936935;29;20415;-67
2022/06/11 10:18:26;;;;;;;3.43;1.60;;;;;;;;;;4938058;29;20474;-68
2022/06/11 10:21:15;;;;;;;2.07;1.63;;;;;;;;;;4936785;29;20549;-67
2022/06/11 10:23:45;;;;;;;2.13;2.03;;;;;;;;;;4929214;29;20525;-67
2022/06/11 10:26:11;;;;;;;1.53;1.43;;;;;;;;;;4938235;29;20432;-65
2022/06/11 10:28:37;;;;;;;2.03;1.50;;;;;;;;;;4937985;29;20758;-68
2022/06/11 10:31:03;;;;;;;1.50;1.40;;;;;;;;;;4936699;29;20181;-67
2022/06/11 10:33:38;;;;;;;2.33;1.60;;;;;;;;;;4937950;29;20768;-67
2022/06/11 10:36:08;;;;;;;3.70;2.00;;;;;;;;;;4937776;29;20477;-67
2022/06/11 10:38:37;;;;;;;1.50;1.50;;;;;;;;;;4937646;29;20473;-66
2022/06/11 10:41:05;;;;;;;1.77;1.67;;;;;;;;;;4936400;29;20855;-68
2022/06/11 10:43:35;;;;;;;2.03;1.73;;;;;;;;;;4937688;29;20423;-66
2022/06/11 10:46:01;;;;;;;2.43;1.40;;;;;;;;;;4937543;29;20458;-67
2022/06/11 10:48:31;;;;;;;4.13;1.90;;;;;;;;;;4937517;29;20499;-67
2022/06/11 10:50:59;;;;;;;1.73;1.40;;;;;;;;;;4936245;29;20490;-65
2022/06/11 10:53:25;;;;;;;0.97;0.87;;;;;;;;;;4936179;29;20531;-68
2022/06/11 10:55:54;;;;;;;1.40;1.40;;;;;;;;;;4937485;29;20411;-69
2022/06/11 10:58:39;;;;;;;4.10;1.50;;;;;;;;;;4937348;29;20494;-67
2022/06/11 11:01:10;;;;;;;2.20;1.50;;;;;;;;;;4937388;29;20474;-66
2022/06/11 11:03:50;;;;;;;1.60;1.37;;;;;;;;;;4935571;29;20432;-66
2022/06/11 11:06:35;;;;;;;1.93;1.53;;;;;;;;;;4937280;29;20421;-67
2022/06/11 11:09:10;;;;;;;1.60;1.50;;;;;;;;;;4937228;29;20416;-65
2022/06/11 11:11:44;;;;;;;2.00;1.40;;;;;;;;;;4937115;29;20427;-66
2022/06/11 11:14:16;;;;;;;3.43;1.93;;;;;;;;;;4937087;29;20412;-68
2022/06/11 11:16:47;;;;;;;6.00;1.47;;;;;;;;;;4937117;29;20908;-67
2022/06/11 11:19:15;;;;;;;1.63;1.60;;;;;;;;;;4936908;29;20479;-66
2022/06/11 11:21:54;;;;;;;1.77;1.40;;;;;;;;;;4935689;29;20537;-66
2022/06/11 11:24:23;;;;;;;2.40;1.10;;;;;;;;;;4936927;29;20424;-67
2022/06/11 11:26:53;;;;;;;1.30;1.30;;;;;;;;;;4936916;29;20416;-68
2022/06/11 11:29:22;;;;;;;2.43;1.47;;;;;;;;;;4936876;29;20416;-67
2022/06/11 11:31:50;;;;;;;3.30;1.50;;;;;;;;;;4936599;29;20559;-66
2022/06/11 11:34:23;;;;;;;1.40;1.30;;;;;;;;;;4935536;29;20441;-66
2022/06/11 11:36:49;;;;;;;1.30;1.30;;;;;;;;;;4936733;29;20508;-67
2022/06/11 11:39:21;;;;;;;2.50;1.43;;;;;;;;;;4936569;29;20983;-68
2022/06/11 11:42:02;;;;;;;2.80;1.53;;;;;;;;;;4936660;29;20508;-67
2022/06/11 11:44:28;;;;;;;1.47;1.40;;;;;;;;;;4936671;29;20405;-67
2022/06/11 11:46:56;;;;;;;1.30;1.30;;;;;;;;;;4936599;29;21037;-68
2022/06/11 11:49:24;;;;;;;1.53;1.40;;;;;;;;;;4936519;29;20476;-68
2022/06/11 11:51:51;;;;;;;3.13;1.80;;;;;;;;;;4936566;29;20412;-67
2022/06/11 11:54:18;;;;;;;1.50;1.50;;;;;;;;;;4936513;29;20419;-68
2022/06/11 11:56:47;;;;;;;2.43;1.47;;;;;;;;;;4936455;29;20417;-65
2022/06/11 11:59:20;;;;;;;4.00;1.23;;;;;;;;;;4936293;29;20472;-65
2022/06/11 12:01:48;;;;;;;1.80;1.57;;;;;;;;;;4936400;29;20420;-66
2022/06/11 12:04:20;;;;;;;1.97;1.83;;;;;;;;;;4936345;29;20416;-66
2022/06/11 12:06:50;;;;;;;1.57;1.47;;;;;;;;;;4935089;29;20424;-67
2022/06/11 12:09:25;;;;;;;1.93;1.83;;;;;;;;;;4934989;29;20431;-67
2022/06/11 12:12:00;;;;;;;1.10;1.10;;;;;;;;;;4936192;29;20417;-67
2022/06/11 12:14:31;;;;;;;1.37;1.30;;;;;;;;;;4935503;29;20511;-65
2022/06/11 12:16:57;;;;;;;2.03;1.80;;;;;;;;;;4935902;29;20495;-65
2022/06/11 12:19:27;;;;;;;2.87;2.17;;;;;;;;;;4936201;29;20472;-66
2022/06/11 12:22:05;;;;;;;1.83;1.70;;;;;;;;;;4936510;29;20413;-68
2022/06/11 12:24:36;;;;;;;7.73;1.63;;;;;;;;;;4936188;29;20444;-67
2022/06/11 12:27:05;;;;;;;2.63;1.80;;;;;;;;;;4936246;29;20419;-67
2022/06/11 12:29:31;;;;;;;2.50;1.60;;;;;;;;;;4936192;29;20500;-69
2022/06/11 12:32:00;;;;;;;1.70;1.60;;;;;;;;;;4936066;29;20498;-69
2022/06/11 12:34:28;;;;;;;1.97;1.83;;;;;;;;;;4936113;29;20915;-68
2022/06/11 12:37:00;;;;;;;1.90;1.80;;;;;;;;;;4936151;29;20452;-69
2022/06/11 12:39:36;;;;;;;4.10;1.27;;;;;;;;;;4936026;29;20849;-68
2022/06/11 12:42:14;;;;;;;4.20;1.83;;;;;;;;;;4936039;29;20420;-67
2022/06/11 12:44:59;;;;;;;1.70;1.60;;;;;;;;;;4936017;29;20922;-67
2022/06/11 12:47:46;;;;;;;2.07;1.50;;;;;;;;;;4935966;29;20440;-68
2022/06/11 12:50:27;;;;;;;1.63;1.37;;;;;;;;;;4935954;29;20484;-68
2022/06/11 12:52:59;;;;;;;1.60;1.50;;;;;;;;;;4934689;29;20786;-65
2022/06/11 12:55:36;;;;;;;1.50;1.50;;;;;;;;;;4935801;29;20464;-66
2022/06/11 12:58:07;;;;;;;1.70;1.60;;;;;;;;;;4935804;29;20468;-68
2022/06/11 13:00:55;;;;;;;2.20;1.80;;;;;;;;;;4935941;29;20492;-68
2022/06/11 13:03:24;;;;;;;1.50;1.40;;;;;;;;;;4935894;29;20536;-68
2022/06/11 13:06:09;;;;;;;1.40;1.30;;;;;;;;;;4936015;29;20400;-67
2022/06/11 13:08:47;;;;;;;4.90;1.60;;;;;;;;;;4934514;29;20956;-67
2022/06/11 13:11:16;;;;;;;1.53;1.53;;;;;;;;;;4934511;29;20431;-67
2022/06/11 13:13:54;;;;;;;1.30;1.30;;;;;;;;;;4935761;29;20421;-66
2022/06/11 13:16:39;;;;;;;2.67;1.10;;;;;;;;;;4934521;29;20483;-68
2022/06/11 13:19:11;;;;;;;1.30;1.30;;;;;;;;;;4935657;29;20472;-68
2022/06/11 13:21:46;;;;;;;1.87;1.40;;;;;;;;;;4935733;29;20415;-67
2022/06/11 13:24:19;;;;;;;1.70;1.60;;;;;;;;;;4935636;29;20787;-68
2022/06/11 13:26:57;;;;;;;1.97;1.30;;;;;;;;;;4936886;29;20428;-68
2022/06/11 13:29:31;;;;;;;1.20;1.10;;;;;;;;;;4939054;29;20440;-67
2022/06/11 13:32:15;;;;;;;1.07;1.07;;;;;;;;;;4938844;29;20499;-69
2022/06/11 13:34:51;;;;;;;1.20;1.20;;;;;;;;;;4938987;29;20762;-68
2022/06/11 13:37:24;;;;;;;1.47;1.13;;;;;;;;;;4938867;29;20405;-67
2022/06/11 13:40:09;;;;;;;1.30;1.20;;;;;;;;;;4938565;29;20490;-66
2022/06/11 13:42:44;;;;;;;1.30;1.20;;;;;;;;;;4938731;29;20401;-68
2022/06/11 13:45:13;;;;;;;2.20;1.47;;;;;;;;;;4938709;29;20428;-67
2022/06/11 13:47:48;;;;;;;3.40;1.60;;;;;;;;;;4938531;29;20839;-68
2022/06/11 13:50:17;;;;;;;1.63;1.53;;;;;;;;;;4938506;29;20891;-66
2022/06/11 13:55:52;;;;;;;0.93;0.93;;;;;;;;;;4938305;29;20443;-68
2022/06/11 13:58:37;;;;;;;7.90;1.20;;;;;;;;;;4938383;29;20510;-66
2022/06/11 14:01:14;;;;;;;1.20;1.20;;;;;;;;;;4938272;29;20419;-66
2022/06/11 14:03:58;;;;;;;1.20;1.20;;;;;;;;;;4938317;29;20412;-67
2022/06/11 14:06:24;;;;;;;1.10;1.10;;;;;;;;;;4938431;29;20448;-68
2022/06/11 14:09:02;;;;;;;2.40;1.40;;;;;;;;;;4938315;29;20416;-67
2022/06/11 14:11:28;;;;;;;2.67;1.40;;;;;;;;;;4938337;29;20416;-67
2022/06/11 14:13:57;;;;;;;2.23;1.20;;;;;;;;;;4938180;29;20417;-68
2022/06/11 14:16:32;;;;;;;2.10;1.10;;;;;;;;;;4938230;29;20173;-66
2022/06/11 14:18:59;;;;;;;2.07;1.20;;;;;;;;;;4938004;29;20511;-67
2022/06/11 14:21:42;;;;;;;2.77;1.57;;;;;;;;;;4938085;29;20416;-66
2022/06/11 14:24:09;;;;;;;1.20;1.20;;;;;;;;;;4938036;29;20421;-67
2022/06/11 14:26:52;;;;;;;3.90;1.10;;;;;;;;;;4937986;29;20436;-67
2022/06/11 14:29:20;;;;;;;1.40;1.30;;;;;;;;;;4937963;29;20413;-67
2022/06/11 14:31:54;;;;;;;3.20;1.20;;;;;;;;;;4938024;29;20559;-67
2022/06/11 14:34:23;;;;;;;1.43;1.30;;;;;;;;;;4938024;29;20417;-64
2022/06/11 14:37:06;;;;;;;2.87;1.60;;;;;;;;;;4937869;29;20408;-66
2022/06/11 14:39:33;;;;;;;1.43;1.33;;;;;;;;;;4936765;29;20575;-65
2022/06/11 14:42:18;;;;;;;1.53;1.43;;;;;;;;;;4936554;29;20431;-67
2022/06/11 14:44:45;;;;;;;1.00;1.00;;;;;;;;;;4937718;29;20906;-67
2022/06/11 14:47:46;;;;;;;1.20;1.20;;;;;;;;;;4937703;29;20971;-67
2022/06/11 14:50:31;;;;;;;1.30;1.20;;;;;;;;;;4936157;29;20953;-67
2022/06/11 14:53:04;;;;;;;1.37;1.27;;;;;;;;;;4937481;29;20413;-67
2022/06/11 14:55:33;;;;;;;2.10;1.17;;;;;;;;;;4937510;29;20880;-67
2022/06/11 14:57:59;;;;;;;1.47;1.20;;;;;;;;;;4937288;29;20460;-68
2022/06/11 15:00:26;;;;;;;1.00;1.00;;;;;;;;;;4937432;29;20980;-68
2022/06/11 15:02:55;;;;;;;1.37;1.20;;;;;;;;;;4937328;29;20224;-65
2022/06/11 15:05:21;;;;;;;1.30;1.20;;;;;;;;;;4937292;29;20778;-64
2022/06/11 15:08:01;;;;;;;1.10;1.00;;;;;;;;;;4937267;29;20412;-66
2022/06/11 15:10:33;;;;;;;5.50;1.30;;;;;;;;;;4935962;29;20436;-66